createdAt,value
2024-04-23T01:44:20.103Z,1012.98
2024-04-23T01:44:50.092Z,1012.99
2024-04-23T01:45:20.181Z,1012.99
2024-04-23T01:45:50.087Z,1012.99
2024-04-23T01:46:20.092Z,1013.00
2024-04-23T01:46:50.174Z,1012.99
2024-04-23T01:47:20.155Z,1013.00
2024-04-23T01:47:50.088Z,1012.99
2024-04-23T01:48:20.165Z,1012.99
2024-04-23T01:48:50.046Z,1012.99
2024-04-23T01:49:20.174Z,1012.99
2024-04-23T01:49:50.188Z,1012.99
2024-04-23T01:50:20.072Z,1012.99
2024-04-23T01:50:50.028Z,1012.98
2024-04-23T01:51:20.044Z,1012.99
2024-04-23T01:51:50.037Z,1012.98
2024-04-23T01:52:20.059Z,1012.98
2024-04-23T01:52:50.032Z,1012.98
2024-04-23T01:53:20.054Z,1012.97
2024-04-23T01:53:49.996Z,1012.96
2024-04-23T01:54:20.000Z,1012.96
2024-04-23T01:54:49.984Z,1012.95
2024-04-23T01:55:20.065Z,1012.94
2024-04-23T01:55:50.043Z,1012.93
2024-04-23T01:56:19.979Z,1012.92
2024-04-23T01:56:49.973Z,1012.91
2024-04-23T01:57:19.956Z,1012.90
2024-04-23T01:57:49.960Z,1012.89
2024-04-23T01:58:20.008Z,1012.89
2024-04-23T01:58:49.953Z,1012.88
2024-04-23T01:59:19.943Z,1012.88
2024-04-23T01:59:49.968Z,1012.88
2024-04-23T02:00:19.934Z,1012.88
2024-04-23T02:00:49.953Z,1012.88
2024-04-23T02:01:19.956Z,1012.88
2024-04-23T02:01:49.998Z,1012.88
2024-04-23T02:02:20.025Z,1012.88
2024-04-23T02:02:50.009Z,1012.88
2024-04-23T02:03:19.917Z,1012.87
2024-04-23T02:03:49.975Z,1012.87
2024-04-23T02:04:19.890Z,1012.86
2024-04-23T02:04:49.897Z,1012.85
2024-04-23T02:05:19.888Z,1012.85
2024-04-23T02:05:49.872Z,1012.84
2024-04-23T02:06:19.882Z,1012.83
2024-04-23T02:06:49.854Z,1012.83
2024-04-23T02:07:19.873Z,1012.82
2024-04-23T02:07:49.970Z,1012.82
2024-04-23T06:20:39.788Z,1012.40
2024-04-23T06:21:10.636Z,1012.41
2024-04-23T06:21:40.581Z,1012.42
2024-04-23T06:22:10.609Z,1012.42
2024-04-23T06:22:40.845Z,1012.43
2024-04-23T06:23:10.730Z,1012.43
2024-04-23T06:23:40.557Z,1012.43
2024-04-23T06:24:10.570Z,1012.43
2024-04-23T06:24:40.546Z,1012.43
2024-04-23T06:25:10.567Z,1012.43
2024-04-23T06:25:40.767Z,1012.43
2024-04-23T06:26:10.659Z,1012.43
2024-04-23T06:26:40.525Z,1012.44
2024-04-23T06:27:10.524Z,1012.43
2024-04-23T06:27:40.855Z,1012.43
2024-04-23T06:28:10.586Z,1012.44
2024-04-23T06:28:40.552Z,1012.43
2024-04-23T06:29:10.511Z,1012.43
2024-04-23T06:29:40.492Z,1012.43
2024-04-23T06:30:10.578Z,1012.42
2024-04-23T06:30:40.498Z,1012.41
2024-04-23T06:31:10.483Z,1012.41
2024-04-23T06:31:40.526Z,1012.40
2024-04-23T06:32:10.566Z,1012.40
2024-04-23T06:32:40.669Z,1012.40
2024-04-23T06:33:10.872Z,1012.39
2024-04-23T06:33:40.576Z,1012.38
2024-04-23T06:34:10.441Z,1012.38
2024-04-23T06:34:40.511Z,1012.37
2024-04-23T06:35:10.545Z,1012.36
2024-04-23T06:35:40.427Z,1012.35
2024-04-23T06:36:10.434Z,1012.34
2024-04-23T06:36:40.474Z,1012.33
2024-04-23T06:37:10.430Z,1012.32
2024-04-23T06:37:40.438Z,1012.31
2024-04-23T06:38:10.531Z,1012.31
2024-04-23T06:38:40.406Z,1012.29
2024-04-23T06:39:10.391Z,1012.28
2024-04-23T06:39:40.403Z,1012.28
2024-04-23T06:40:11.034Z,1012.28
2024-04-23T06:40:40.505Z,1012.28
2024-04-23T06:41:10.399Z,1012.28
2024-04-23T06:41:40.374Z,1012.29
2024-04-23T06:42:10.370Z,1012.29
2024-04-23T06:42:40.374Z,1012.29
2024-04-23T06:43:12.326Z,1012.29
2024-04-23T06:43:40.446Z,1012.29
2024-04-23T06:44:10.387Z,1012.29
2024-04-23T06:44:40.349Z,1012.28
2024-04-23T06:45:10.326Z,1012.27
2024-04-23T06:45:40.323Z,1012.27
2024-04-23T06:46:10.321Z,1012.27
2024-04-23T06:46:40.367Z,1012.26
2024-04-23T06:47:10.329Z,1012.26
2024-04-23T06:47:40.333Z,1012.25
2024-04-23T06:48:10.391Z,1012.25
2024-04-23T06:48:40.336Z,1012.24
2024-04-23T06:49:10.287Z,1012.24
2024-04-23T06:49:40.331Z,1012.24
2024-04-23T06:50:10.367Z,1012.24
2024-04-23T06:50:40.275Z,1012.24
2024-04-23T06:51:10.309Z,1012.24
2024-04-23T06:51:40.273Z,1012.23
2024-04-23T06:52:10.258Z,1012.23
2024-04-23T06:52:40.294Z,1012.23
2024-04-23T06:53:10.291Z,1012.22
2024-04-23T06:53:40.289Z,1012.22
2024-04-23T06:54:10.233Z,1012.21
2024-04-23T06:54:40.238Z,1012.20
2024-04-23T06:55:10.238Z,1012.20
2024-04-23T06:55:40.263Z,1012.19
2024-04-23T06:56:10.306Z,1012.18
2024-04-23T06:56:40.217Z,1012.18
2024-04-23T06:57:10.198Z,1012.17
2024-04-23T06:57:40.202Z,1012.16
2024-04-23T06:58:10.208Z,1012.17
2024-04-23T06:58:40.264Z,1012.16
2024-04-23T06:59:10.253Z,1012.16
2024-04-23T06:59:40.169Z,1012.14
2024-04-23T07:00:10.178Z,1012.13
2024-04-23T07:00:40.267Z,1012.14
2024-04-23T07:01:10.236Z,1012.14
2024-04-23T07:01:40.185Z,1012.15
2024-04-23T07:02:10.291Z,1012.15
2024-04-23T07:02:40.231Z,1012.16
2024-04-23T07:03:10.138Z,1012.16
2024-04-23T07:03:40.169Z,1012.17
2024-04-23T07:04:10.214Z,1012.17
2024-04-23T07:04:40.204Z,1012.18
2024-04-23T07:05:10.283Z,1012.19
2024-04-23T07:05:40.167Z,1012.19
2024-04-23T07:06:10.100Z,1012.19
2024-04-23T07:06:40.101Z,1012.18
2024-04-23T07:07:10.110Z,1012.19
2024-04-23T07:07:40.142Z,1012.19
2024-04-23T07:08:10.196Z,1012.19
2024-04-23T07:08:40.071Z,1012.19
2024-04-23T07:09:10.135Z,1012.18
2024-04-23T07:09:40.117Z,1012.18
2024-04-23T07:10:10.060Z,1012.17
2024-04-23T07:10:40.094Z,1012.17
2024-04-23T07:11:10.104Z,1012.16
2024-04-23T07:11:40.123Z,1012.15
2024-04-23T07:12:10.031Z,1012.15
2024-04-23T07:12:40.056Z,1012.15
2024-04-23T07:13:10.040Z,1012.14
2024-04-23T07:13:40.048Z,1012.13
2024-04-23T07:14:10.110Z,1012.12
2024-04-23T07:14:40.017Z,1012.11
2024-04-23T07:15:10.051Z,1012.10
2024-04-23T07:15:39.996Z,1012.08
2024-04-23T07:16:10.000Z,1012.07
2024-04-23T07:16:40.094Z,1012.06
2024-04-23T07:17:10.106Z,1012.05
2024-04-23T07:17:40.204Z,1012.05
2024-04-23T07:18:10.156Z,1012.04
2024-04-23T07:18:50.646Z,1012.03
2024-04-23T07:19:10.019Z,1012.02
2024-04-23T07:19:40.015Z,1012.02
2024-04-23T07:20:10.148Z,1012.02
2024-04-23T07:20:39.998Z,1012.02
2024-04-23T07:21:09.974Z,1012.00
2024-04-23T07:21:39.942Z,1012.00
2024-04-23T07:22:09.938Z,1011.99
2024-04-23T07:22:39.961Z,1011.98
2024-04-23T07:23:09.963Z,1011.97
2024-04-23T07:23:39.919Z,1011.96
2024-04-23T07:24:09.927Z,1011.95
2024-04-23T07:24:39.911Z,1011.95
2024-04-23T07:25:09.971Z,1011.94
2024-04-23T07:25:39.960Z,1011.93
2024-04-23T07:26:09.970Z,1011.93
2024-04-23T07:26:39.884Z,1011.92
2024-04-23T07:27:09.889Z,1011.92
2024-04-23T07:27:39.891Z,1011.92
2024-04-23T07:28:09.861Z,1011.93
2024-04-23T07:28:39.884Z,1011.93
2024-04-23T07:29:09.875Z,1011.94
2024-04-23T07:29:39.865Z,1011.94
2024-04-23T07:30:09.906Z,1011.95
2024-04-23T07:30:39.891Z,1011.95
2024-04-23T07:31:09.855Z,1011.94
2024-04-23T07:31:39.922Z,1011.94
2024-04-23T07:32:10.020Z,1012.24
2024-04-23T07:32:39.918Z,1012.31
2024-04-23T07:33:09.981Z,1012.19
2024-04-23T07:33:39.927Z,1012.07
2024-04-23T07:34:09.806Z,1012.04
2024-04-23T07:34:39.914Z,1012.01
2024-04-23T07:35:09.860Z,1011.98
2024-04-23T07:35:39.981Z,1011.96
2024-04-23T07:36:09.776Z,1011.95
2024-04-23T07:36:42.695Z,1011.95
2024-04-23T07:37:09.828Z,1011.95
2024-04-23T07:37:39.963Z,1011.94
2024-04-23T07:38:09.833Z,1011.93
2024-04-23T07:38:39.780Z,1011.93
2024-04-23T07:39:09.752Z,1011.92
2024-04-23T07:39:39.748Z,1011.92
2024-04-23T07:40:09.748Z,1011.92
2024-04-23T07:40:39.844Z,1011.92
2024-04-23T07:41:09.823Z,1011.92
2024-04-23T07:41:40.014Z,1011.92
2024-04-23T07:42:09.725Z,1011.91
2024-04-23T07:42:39.717Z,1011.91
2024-04-23T07:43:09.735Z,1011.90
2024-04-23T07:43:39.804Z,1011.89
2024-04-23T07:44:10.170Z,1011.89
2024-04-23T07:44:39.695Z,1011.87
2024-04-23T07:45:09.700Z,1011.87
2024-04-23T07:45:39.685Z,1011.87
2024-04-23T07:46:09.739Z,1011.86
2024-04-23T07:46:39.726Z,1011.85
2024-04-23T07:47:09.775Z,1011.85
2024-04-23T07:47:39.830Z,1011.84
2024-04-23T07:48:09.771Z,1011.84
2024-04-23T07:48:39.677Z,1011.83
2024-04-23T07:49:09.675Z,1011.81
2024-04-23T07:49:39.708Z,1011.81
2024-04-23T07:50:09.755Z,1011.80
2024-04-23T07:50:39.629Z,1011.79
2024-04-23T07:51:09.650Z,1011.79
2024-04-23T07:51:39.618Z,1011.78
2024-04-23T07:52:09.638Z,1011.78
2024-04-23T07:52:39.642Z,1011.78
2024-04-23T07:53:09.705Z,1011.78
2024-04-23T07:53:39.635Z,1011.78
2024-04-23T07:54:09.610Z,1011.78
2024-04-23T07:54:39.595Z,1011.78
2024-04-23T07:55:09.578Z,1011.78
2024-04-23T07:55:39.616Z,1011.79
2024-04-23T07:56:09.724Z,1011.80
2024-04-23T07:56:39.562Z,1011.77
2024-04-23T07:57:09.598Z,1011.77
2024-04-23T07:57:39.654Z,1011.76
2024-04-23T07:58:09.549Z,1011.76
2024-04-23T07:58:39.776Z,1011.75
2024-04-23T07:59:09.653Z,1011.75
2024-04-23T07:59:39.529Z,1011.74
2024-04-23T08:00:09.544Z,1011.74
2024-04-23T08:00:39.584Z,1011.74
2024-04-23T08:01:09.577Z,1011.73
2024-04-23T08:01:39.540Z,1011.72
2024-04-23T08:02:09.761Z,1011.72
2024-04-23T08:02:39.531Z,1011.69
2024-04-23T08:03:11.578Z,1011.73
2024-04-23T08:03:39.583Z,1011.72
2024-04-23T08:04:09.551Z,1011.72
2024-04-23T08:04:39.503Z,1011.72
2024-04-23T08:05:09.543Z,1011.72
2024-04-23T08:05:39.474Z,1011.72
2024-04-23T08:06:09.454Z,1011.72
2024-04-23T08:06:39.474Z,1011.71
2024-04-23T08:07:09.453Z,1011.71
2024-04-23T08:07:39.539Z,1011.72
2024-04-23T08:08:09.630Z,1011.70
2024-04-23T08:08:39.430Z,1011.70
2024-04-23T08:09:09.425Z,1011.69
2024-04-23T08:09:39.437Z,1011.68
2024-04-23T08:10:09.422Z,1011.67
2024-04-23T08:10:39.521Z,1011.66
2024-04-23T08:11:09.735Z,1011.65
2024-04-23T08:11:39.441Z,1011.62
2024-04-23T08:12:09.481Z,1011.63
2024-04-23T08:12:39.695Z,1011.62
2024-04-23T08:13:09.433Z,1011.61
2024-04-23T08:13:39.436Z,1011.60
2024-04-23T08:14:09.486Z,1011.59
2024-04-23T08:14:39.375Z,1011.59
2024-04-23T08:15:09.437Z,1011.58
2024-04-23T08:15:39.356Z,1011.58
2024-04-23T08:16:09.357Z,1011.58
2024-04-23T08:16:39.409Z,1011.58
2024-04-23T08:17:09.480Z,1011.58
2024-04-23T08:17:39.766Z,1011.58
2024-04-23T08:18:09.610Z,1011.58
2024-04-23T08:18:39.606Z,1011.59
2024-04-23T08:19:09.348Z,1011.58
2024-04-23T08:19:39.393Z,1011.58
2024-04-23T08:20:09.403Z,1011.58
2024-04-23T08:20:42.432Z,1011.58
2024-04-23T08:21:09.325Z,1011.58
2024-04-23T08:21:39.316Z,1011.58
2024-04-23T08:22:09.303Z,1011.59
2024-04-23T08:22:39.293Z,1011.58
2024-04-23T08:23:09.305Z,1011.57
2024-04-23T08:23:39.312Z,1011.57
2024-04-23T08:24:09.261Z,1011.57
2024-04-23T08:24:39.323Z,1011.56
2024-04-23T08:25:09.271Z,1011.56
2024-04-23T08:25:39.308Z,1011.55
2024-04-23T08:26:09.366Z,1011.54
2024-04-23T08:26:39.250Z,1011.54
2024-04-23T08:27:09.233Z,1011.54
2024-04-23T08:27:39.251Z,1011.53
2024-04-23T08:28:09.250Z,1011.53
2024-04-23T08:28:39.385Z,1011.53
2024-04-23T08:29:09.320Z,1011.52
2024-04-23T08:29:39.243Z,1011.53
2024-04-23T08:30:09.250Z,1011.53
2024-04-23T08:30:39.201Z,1011.53
2024-04-23T08:31:09.241Z,1011.52
2024-04-23T08:31:39.329Z,1011.52
2024-04-23T08:32:09.356Z,1011.51
2024-04-23T08:32:39.305Z,1011.51
2024-04-23T08:33:09.302Z,1011.52
2024-04-23T08:33:39.242Z,1011.51
2024-04-23T08:34:09.181Z,1011.52
2024-04-23T08:34:39.296Z,1011.52
2024-04-23T08:35:09.174Z,1011.51
2024-04-23T08:35:39.204Z,1011.51
2024-04-23T08:36:09.321Z,1011.50
2024-04-23T08:36:39.190Z,1011.49
2024-04-23T08:37:09.170Z,1011.49
2024-04-23T08:37:39.199Z,1011.49
2024-04-23T08:38:09.176Z,1011.49
2024-04-23T08:38:39.375Z,1011.48
2024-04-23T08:39:09.152Z,1011.46
2024-04-23T08:39:39.151Z,1011.44
2024-04-23T08:40:09.163Z,1011.43
2024-04-23T08:40:39.139Z,1011.41
2024-04-23T08:41:09.214Z,1011.42
2024-04-23T08:41:40.430Z,1011.40
2024-04-23T08:42:09.075Z,1011.39
2024-04-23T08:42:39.077Z,1011.38
2024-04-23T08:43:09.129Z,1011.37
2024-04-23T08:43:39.090Z,1011.37
2024-04-23T08:44:09.286Z,1011.37
2024-04-23T08:44:39.053Z,1011.36
2024-04-23T08:45:09.052Z,1011.36
2024-04-23T08:45:39.101Z,1011.35
2024-04-23T08:46:09.076Z,1011.34
2024-04-23T08:46:39.061Z,1011.33
2024-04-23T08:47:09.098Z,1011.33
2024-04-23T08:47:39.114Z,1011.33
2024-04-23T08:48:09.152Z,1011.33
2024-04-23T08:48:39.058Z,1011.33
2024-04-23T08:49:08.997Z,1011.34
2024-04-23T08:49:39.100Z,1011.35
2024-04-23T08:50:09.097Z,1011.35
2024-04-23T08:50:39.019Z,1011.34
2024-04-23T08:51:09.409Z,1011.34
2024-04-23T08:51:38.981Z,1011.34
2024-04-23T08:52:08.988Z,1011.33
2024-04-23T08:52:39.134Z,1011.32
2024-04-23T08:53:09.309Z,1011.31
2024-04-23T08:53:39.036Z,1011.30
2024-04-23T08:54:08.946Z,1011.29
2024-04-23T08:54:38.950Z,1011.28
2024-04-23T08:55:08.951Z,1011.26
2024-04-23T08:55:38.967Z,1011.28
2024-04-23T08:56:09.036Z,1011.27
2024-04-23T08:56:38.975Z,1011.26
2024-04-23T08:57:08.925Z,1011.24
2024-04-23T08:57:38.943Z,1011.24
2024-04-23T08:58:08.917Z,1011.24
2024-04-23T08:58:38.961Z,1011.24
2024-04-23T08:59:08.923Z,1011.23
2024-04-23T08:59:38.903Z,1011.23
2024-04-23T09:00:08.889Z,1011.22
2024-04-23T09:00:48.727Z,1011.22
2024-04-23T09:01:08.892Z,1011.21
2024-04-23T09:01:39.105Z,1011.20
2024-04-23T09:02:08.941Z,1011.20
2024-04-23T09:02:38.945Z,1011.20
2024-04-23T09:03:08.946Z,1011.19
2024-04-23T09:03:38.886Z,1011.18
2024-04-23T09:04:08.913Z,1011.17
2024-04-23T09:04:38.887Z,1011.16
2024-04-23T09:05:08.923Z,1011.15
2024-04-23T09:05:38.841Z,1011.14
2024-04-23T09:06:08.830Z,1011.13
2024-04-23T09:06:38.836Z,1011.13
2024-04-23T09:07:11.420Z,1011.12
2024-04-23T09:07:39.040Z,1011.10
2024-04-23T09:08:08.948Z,1011.11
2024-04-23T09:08:38.821Z,1011.11
2024-04-23T09:09:08.796Z,1011.10
2024-04-23T09:09:38.786Z,1011.09
2024-04-23T09:10:08.794Z,1011.08
2024-04-23T09:10:38.803Z,1011.08
2024-04-23T09:11:08.835Z,1011.07
2024-04-23T09:11:38.820Z,1011.06
2024-04-23T09:12:08.878Z,1011.06
2024-04-23T09:12:38.759Z,1011.05
2024-04-23T09:13:08.846Z,1011.04
2024-04-23T09:13:38.883Z,1011.04
2024-04-23T09:14:08.947Z,1011.03
2024-04-23T09:14:38.754Z,1011.02
2024-04-23T09:15:08.767Z,1011.01
2024-04-23T09:15:38.722Z,1011.00
2024-04-23T09:16:08.724Z,1010.98
2024-04-23T09:16:38.782Z,1010.97
2024-04-23T09:17:08.868Z,1010.95
2024-04-23T09:17:38.793Z,1010.94
2024-04-23T09:18:08.935Z,1010.93
2024-04-23T09:18:38.808Z,1010.92
2024-04-23T09:19:08.697Z,1010.91
2024-04-23T09:19:38.726Z,1010.91
2024-04-23T09:20:08.775Z,1010.90
2024-04-23T09:20:38.679Z,1010.89
2024-04-23T09:21:08.670Z,1010.89
2024-04-23T09:21:38.662Z,1010.88
2024-04-23T09:22:09.767Z,1010.88
2024-04-23T09:22:38.705Z,1010.87
2024-04-23T09:23:08.755Z,1010.87
2024-04-23T09:23:38.639Z,1010.87
2024-04-23T09:24:08.633Z,1010.87
2024-04-23T09:24:38.623Z,1010.87
2024-04-23T09:25:08.629Z,1010.86
2024-04-23T09:25:38.760Z,1010.85
2024-04-23T09:26:08.753Z,1010.84
2024-04-23T09:26:38.604Z,1010.84
2024-04-23T09:27:08.614Z,1010.82
2024-04-23T09:27:38.597Z,1010.82
2024-04-23T09:28:08.735Z,1010.82
2024-04-23T09:28:39.766Z,1010.82
2024-04-23T09:29:08.609Z,1010.82
2024-04-23T09:29:38.611Z,1010.82
2024-04-23T09:30:08.585Z,1010.82
2024-04-23T09:30:38.582Z,1010.81
2024-04-23T09:31:08.551Z,1010.81
2024-04-23T09:31:38.618Z,1010.80
2024-04-23T09:32:08.764Z,1010.81
2024-04-23T09:32:38.695Z,1010.80
2024-04-23T09:33:08.815Z,1010.80
2024-04-23T09:33:38.548Z,1010.80
2024-04-23T09:34:08.532Z,1010.79
2024-04-23T09:34:39.870Z,1010.79
2024-04-23T09:35:08.692Z,1010.78
2024-04-23T09:35:38.518Z,1010.77
2024-04-23T09:36:08.506Z,1010.76
2024-04-23T09:36:38.504Z,1010.75
2024-04-23T09:37:08.492Z,1010.74
2024-04-23T09:37:38.566Z,1010.72
2024-04-23T09:38:08.929Z,1010.72
2024-04-23T09:38:38.521Z,1010.71
2024-04-23T09:39:08.710Z,1010.69
2024-04-23T09:39:39.139Z,1010.69
2024-04-23T09:40:08.470Z,1010.69
2024-04-23T09:40:38.476Z,1010.67
2024-04-23T09:41:08.691Z,1010.67
2024-04-23T09:41:38.479Z,1010.66
2024-04-23T09:42:08.508Z,1010.66
2024-04-23T09:42:38.432Z,1010.66
2024-04-23T09:43:08.473Z,1010.66
2024-04-23T09:43:38.590Z,1010.66
2024-04-23T09:44:08.554Z,1010.65
2024-04-23T09:44:38.420Z,1010.65
2024-04-23T09:45:08.406Z,1010.64
2024-04-23T09:45:38.400Z,1010.65
2024-04-23T09:46:10.759Z,1010.66
2024-04-23T09:46:38.426Z,1010.65
2024-04-23T09:47:08.586Z,1010.64
2024-04-23T09:47:38.404Z,1010.64
2024-04-23T09:48:08.454Z,1010.63
2024-04-23T09:48:38.572Z,1010.62
2024-04-23T09:49:08.416Z,1010.62
2024-04-23T09:49:38.394Z,1010.61
2024-04-23T09:50:08.427Z,1010.60
2024-04-23T09:50:38.347Z,1010.59
2024-04-23T09:51:08.353Z,1010.59
2024-04-23T09:51:38.341Z,1010.59
2024-04-23T09:52:08.342Z,1010.59
2024-04-23T09:52:38.350Z,1010.58
2024-04-23T09:53:08.437Z,1010.59
2024-04-23T09:53:38.348Z,1010.57
2024-04-23T09:54:08.364Z,1010.56
2024-04-23T09:54:38.303Z,1010.55
2024-04-23T09:55:08.306Z,1010.54
2024-04-23T09:55:38.354Z,1010.53
2024-04-23T09:56:08.478Z,1010.53
2024-04-23T09:56:38.277Z,1010.52
2024-04-23T09:57:08.278Z,1010.51
2024-04-23T09:57:38.363Z,1010.51
2024-04-23T09:58:08.260Z,1010.51
2024-04-23T09:58:38.291Z,1010.49
2024-04-23T09:59:08.291Z,1010.49
2024-04-23T09:59:38.286Z,1010.48
2024-04-23T10:00:08.267Z,1010.47
2024-04-23T10:00:38.327Z,1010.47
2024-04-23T10:01:08.264Z,1010.47
2024-04-23T10:01:38.284Z,1010.47
2024-04-23T10:02:08.365Z,1010.47
2024-04-23T10:02:38.660Z,1010.47
2024-04-23T10:03:08.828Z,1010.46
2024-04-23T10:03:38.292Z,1010.44
2024-04-23T10:04:08.277Z,1010.46
2024-04-23T10:04:38.404Z,1010.45
2024-04-23T10:05:08.355Z,1010.44
2024-04-23T10:05:38.284Z,1010.44
2024-04-23T10:06:08.220Z,1010.43
2024-04-23T10:06:38.213Z,1010.42
2024-04-23T10:07:08.171Z,1010.37
2024-04-23T10:07:38.221Z,1010.36
2024-04-23T10:08:08.307Z,1010.34
2024-04-23T10:08:38.145Z,1010.33
2024-04-23T10:09:08.181Z,1010.32
2024-04-23T10:09:38.145Z,1010.31
2024-04-23T10:10:08.142Z,1010.32
2024-04-23T10:10:38.153Z,1010.31
2024-04-23T10:11:08.272Z,1010.31
2024-04-23T10:11:38.155Z,1010.31
2024-04-23T10:12:08.117Z,1010.30
2024-04-23T10:12:38.102Z,1010.29
2024-04-23T10:13:08.103Z,1010.29
2024-04-23T10:13:38.169Z,1010.30
2024-04-23T10:14:08.150Z,1010.29
2024-04-23T10:14:38.084Z,1010.29
2024-04-23T10:15:08.133Z,1010.29
2024-04-23T10:15:38.073Z,1010.28
2024-04-23T10:16:08.092Z,1010.28
2024-04-23T10:16:38.185Z,1010.26
2024-04-23T10:17:08.154Z,1010.25
2024-04-23T10:17:38.109Z,1010.24
2024-04-23T10:18:08.200Z,1010.23
2024-04-23T10:18:38.088Z,1010.22
2024-04-23T10:19:08.045Z,1010.20
2024-04-23T10:19:38.133Z,1010.20
2024-04-23T10:20:08.215Z,1010.18
2024-04-23T10:20:38.043Z,1010.16
2024-04-23T10:21:08.029Z,1010.15
2024-04-23T10:21:38.054Z,1010.15
2024-04-23T10:22:08.034Z,1010.15
2024-04-23T10:22:38.057Z,1010.12
2024-04-23T10:23:08.133Z,1010.14
2024-04-23T10:23:37.995Z,1010.12
2024-04-23T10:24:07.985Z,1010.12
2024-04-23T10:24:37.978Z,1010.11
2024-04-23T10:25:07.985Z,1010.10
2024-04-23T10:25:38.453Z,1010.08
2024-04-23T10:26:08.050Z,1010.07
2024-04-23T10:26:38.007Z,1010.07
2024-04-23T10:27:07.980Z,1010.06
2024-04-23T10:27:37.940Z,1010.05
2024-04-23T10:28:07.947Z,1010.04
2024-04-23T10:28:37.961Z,1010.04
2024-04-23T10:29:08.015Z,1010.03
2024-04-23T10:29:37.963Z,1010.03
2024-04-23T10:30:07.932Z,1010.03
2024-04-23T10:30:37.922Z,1010.02
2024-04-23T10:31:07.908Z,1010.02
2024-04-23T10:31:38.147Z,1010.01
2024-04-23T10:32:08.026Z,1010.00
2024-04-23T10:32:38.015Z,1009.97
2024-04-23T10:33:07.933Z,1009.97
2024-04-23T10:33:37.975Z,1009.97
2024-04-23T10:34:07.879Z,1009.96
2024-04-23T10:34:37.899Z,1009.94
2024-04-23T10:35:07.944Z,1009.95
2024-04-23T10:35:37.865Z,1009.93
2024-04-23T10:36:07.880Z,1009.93
2024-04-23T10:36:37.842Z,1009.94
2024-04-23T10:37:07.894Z,1009.95
2024-04-23T10:37:38.536Z,1009.93
2024-04-23T10:38:07.927Z,1009.93
2024-04-23T10:38:37.826Z,1009.93
2024-04-23T10:39:07.842Z,1009.93
2024-04-23T10:39:37.831Z,1009.91
2024-04-23T10:40:07.848Z,1009.92
2024-04-23T10:40:46.232Z,1009.90
2024-04-23T10:41:07.831Z,1009.93
2024-04-23T10:41:37.897Z,1009.91
2024-04-23T10:42:07.842Z,1009.90
2024-04-23T10:42:37.787Z,1009.89
2024-04-23T10:43:07.788Z,1009.89
2024-04-23T10:43:38.262Z,1009.88
2024-04-23T10:44:07.836Z,1009.87
2024-04-23T10:44:37.821Z,1009.86
2024-04-23T10:45:07.765Z,1009.85
2024-04-23T10:45:37.757Z,1009.83
2024-04-23T10:46:08.391Z,1009.82
2024-04-23T10:46:37.803Z,1009.81
2024-04-23T10:47:07.874Z,1009.79
2024-04-23T10:47:37.796Z,1009.77
2024-04-23T10:48:07.789Z,1009.77
2024-04-23T10:48:38.031Z,1009.77
2024-04-23T10:49:07.723Z,1009.78
2024-04-23T10:49:37.852Z,1009.77
2024-04-23T10:50:07.889Z,1009.77
2024-04-23T10:50:37.715Z,1009.77
2024-04-23T10:51:07.710Z,1009.78
2024-04-23T10:51:37.713Z,1009.77
2024-04-23T10:52:07.694Z,1009.78
2024-04-23T10:52:37.754Z,1009.78
2024-04-23T10:53:07.828Z,1009.78
2024-04-23T10:53:37.682Z,1009.78
2024-04-23T10:54:10.592Z,1009.77
2024-04-23T10:54:37.671Z,1009.77
2024-04-23T10:55:07.675Z,1009.77
2024-04-23T10:55:37.709Z,1009.76
2024-04-23T10:56:07.805Z,1009.76
2024-04-23T10:56:37.647Z,1009.76
2024-04-23T10:57:07.648Z,1009.75
2024-04-23T10:57:37.691Z,1009.74
2024-04-23T10:58:07.637Z,1009.73
2024-04-23T10:58:37.728Z,1009.72
2024-04-23T10:59:07.634Z,1009.72
2024-04-23T10:59:37.723Z,1009.70
2024-04-23T11:00:07.660Z,1009.69
2024-04-23T11:00:37.807Z,1009.69
2024-04-23T11:01:07.613Z,1009.68
2024-04-23T11:01:37.718Z,1009.68
2024-04-23T11:02:07.895Z,1009.67
2024-04-23T11:02:37.684Z,1009.66
2024-04-23T11:03:07.594Z,1009.65
2024-04-23T11:03:37.715Z,1009.65
2024-04-23T11:04:07.702Z,1009.65
2024-04-23T11:04:37.771Z,1009.64
2024-04-23T11:05:07.689Z,1009.63
2024-04-23T11:05:37.632Z,1009.62
2024-04-23T11:06:11.346Z,1009.63
2024-04-23T11:06:37.549Z,1009.59
2024-04-23T11:07:07.553Z,1009.62
2024-04-23T11:07:37.570Z,1009.61
2024-04-23T11:08:07.568Z,1009.61
2024-04-23T11:08:37.516Z,1009.60
2024-04-23T11:09:07.513Z,1009.60
2024-04-23T11:09:37.532Z,1009.60
2024-04-23T11:10:07.551Z,1009.58
2024-04-23T11:10:37.561Z,1009.57
2024-04-23T11:11:07.745Z,1009.55
2024-04-23T11:11:37.534Z,1009.54
2024-04-23T11:12:09.198Z,1009.53
2024-04-23T11:12:37.522Z,1009.51
2024-04-23T11:13:07.473Z,1009.52
2024-04-23T11:13:37.500Z,1009.52
2024-04-23T11:14:07.592Z,1009.51
2024-04-23T11:14:37.456Z,1009.49
2024-04-23T11:15:07.521Z,1009.50
2024-04-23T11:15:37.458Z,1009.48
2024-04-23T11:16:07.474Z,1009.47
2024-04-23T11:16:37.445Z,1009.45
2024-04-23T11:17:07.554Z,1009.43
2024-04-23T11:17:37.543Z,1009.44
2024-04-23T11:18:11.200Z,1009.43
2024-04-23T11:18:37.521Z,1009.43
2024-04-23T11:19:07.456Z,1009.42
2024-04-23T11:19:37.447Z,1009.41
2024-04-23T11:20:07.565Z,1009.40
2024-04-23T11:20:37.387Z,1009.40
2024-04-23T11:21:07.489Z,1009.39
2024-04-23T11:21:37.387Z,1009.37
2024-04-23T11:22:07.386Z,1009.36
2024-04-23T11:22:37.453Z,1009.35
2024-04-23T11:23:07.385Z,1009.36
2024-04-23T11:23:37.358Z,1009.35
2024-04-23T11:24:09.388Z,1009.34
2024-04-23T11:24:37.345Z,1009.33
2024-04-23T11:25:07.352Z,1009.33
2024-04-23T11:25:37.453Z,1009.32
2024-04-23T11:26:07.473Z,1009.32
2024-04-23T11:26:37.340Z,1009.31
2024-04-23T11:27:07.319Z,1009.32
2024-04-23T11:27:37.373Z,1009.31
2024-04-23T11:28:07.331Z,1009.30
2024-04-23T11:28:37.319Z,1009.29
2024-04-23T11:29:07.377Z,1009.28
2024-04-23T11:29:37.298Z,1009.27
2024-04-23T11:30:10.553Z,1009.26
2024-04-23T11:30:37.280Z,1009.25
2024-04-23T11:31:07.310Z,1009.25
2024-04-23T11:31:37.475Z,1009.24
2024-04-23T11:32:07.395Z,1009.24
2024-04-23T11:32:37.323Z,1009.23
2024-04-23T11:33:07.379Z,1009.23
2024-04-23T11:33:37.421Z,1009.23
2024-04-23T11:34:07.247Z,1009.23
2024-04-23T11:34:37.277Z,1009.23
2024-04-23T11:35:07.433Z,1009.23
2024-04-23T11:35:37.244Z,1009.23
2024-04-23T11:36:09.630Z,1009.22
2024-04-23T11:36:37.283Z,1009.21
2024-04-23T11:37:07.221Z,1009.21
2024-04-23T11:37:37.289Z,1009.20
2024-04-23T11:38:07.349Z,1009.19
2024-04-23T11:38:37.200Z,1009.19
2024-04-23T11:39:07.208Z,1009.19
2024-04-23T11:39:37.191Z,1009.19
2024-04-23T11:40:07.202Z,1009.20
2024-04-23T11:40:37.201Z,1009.19
2024-04-23T11:41:07.329Z,1009.19
2024-04-23T11:41:37.241Z,1009.18
2024-04-23T11:42:08.977Z,1009.17
2024-04-23T11:42:37.170Z,1009.18
2024-04-23T11:43:07.150Z,1009.16
2024-04-23T11:43:37.208Z,1009.15
2024-04-23T11:44:07.290Z,1009.13
2024-04-23T11:44:37.142Z,1009.11
2024-04-23T11:45:07.144Z,1009.09
2024-04-23T11:45:37.129Z,1009.09
2024-04-23T11:46:07.145Z,1009.08
2024-04-23T11:46:37.203Z,1009.09
2024-04-23T11:47:07.295Z,1009.08
2024-04-23T11:47:37.422Z,1009.10
2024-04-23T11:48:07.222Z,1009.08
2024-04-23T11:48:37.311Z,1009.07
2024-04-23T11:49:07.115Z,1009.07
2024-04-23T11:49:37.144Z,1009.06
2024-04-23T11:50:07.846Z,1009.05
2024-04-23T11:50:37.079Z,1009.04
2024-04-23T11:51:07.066Z,1009.04
2024-04-23T11:51:37.457Z,1009.03
2024-04-23T11:52:08.503Z,1009.02
2024-04-23T11:52:37.230Z,1009.01
2024-04-23T11:53:07.064Z,1009.00
2024-04-23T11:53:37.045Z,1008.99
2024-04-23T11:54:07.039Z,1008.99
2024-04-23T11:54:37.038Z,1008.99
2024-04-23T11:55:07.035Z,1008.98
2024-04-23T11:55:37.161Z,1008.97
2024-04-23T11:56:07.112Z,1008.97
2024-04-23T11:56:37.018Z,1008.97
2024-04-23T11:57:07.001Z,1008.97
2024-04-23T11:57:37.000Z,1008.95
2024-04-23T11:58:07.042Z,1008.96
2024-04-23T11:58:37.040Z,1008.94
2024-04-23T11:59:07.136Z,1008.92